Time;durP1;ratioP1;P1;durP2;ratioP2;P2;SDS_P1;SDS_P2;PMS_P1;PMS_P2;Temp;Humidity;BMP_temperature;BMP_pressure;BME280_temperature;BME280_humidity;BME280_pressure;Samples;Min_cycle;Max_cycle;Signal;HPM_P1;HPM_P2
2022/08/15 00:01:06;;;;;;;6.28;5.68;;;23.50;64.80;;;;;;6232109;22;20152;-87
2022/08/15 00:03:39;;;;;;;6.45;5.85;;;23.40;65.60;;;;;;6232110;22;20155;-87
2022/08/15 00:06:09;;;;;;;6.00;5.50;;;23.40;64.80;;;;;;6282902;22;20178;-88
2022/08/15 00:08:38;;;;;;;6.00;5.50;;;23.40;64.90;;;;;;6257580;22;20295;-87
2022/08/15 00:11:07;;;;;;;6.45;5.90;;;23.40;64.90;;;;;;6231941;22;20210;-87
2022/08/15 00:13:33;;;;;;;5.97;5.47;;;23.40;64.90;;;;;;6257578;22;20136;-87
2022/08/15 00:16:03;;;;;;;6.60;6.00;;;23.40;64.90;;;;;;6231907;22;20534;-87
2022/08/15 00:18:32;;;;;;;6.25;5.65;;;23.30;64.90;;;;;;6257463;22;20128;-86
2022/08/15 00:20:58;;;;;;;6.65;6.05;;;23.40;64.90;;;;;;6231018;22;20158;-87
2022/08/15 00:23:26;;;;;;;6.57;5.97;;;23.40;64.90;;;;;;6257322;22;20132;-87
2022/08/15 00:25:53;;;;;;;5.82;5.32;;;23.40;64.90;;;;;;6232237;22;20192;-87
2022/08/15 00:28:19;;;;;;;6.07;5.53;;;23.40;64.90;;;;;;6231775;22;20152;-87
2022/08/15 00:30:47;;;;;;;5.90;5.40;;;23.40;64.90;;;;;;6232498;22;20149;-87
2022/08/15 00:33:14;;;;;;;6.50;5.90;;;23.40;65.00;;;;;;6231716;22;20136;-87
2022/08/15 00:35:41;;;;;;;6.25;5.75;;;23.40;65.00;;;;;;6231613;22;20151;-87
2022/08/15 00:38:11;;;;;;;6.53;5.93;;;23.40;65.00;;;;;;6256981;22;20129;-87
2022/08/15 00:43:15;;;;;;;6.00;5.47;;;23.40;65.00;;;;;;6261991;22;20139;-86
2022/08/15 00:45:41;;;;;;;6.07;5.57;;;23.40;65.00;;;;;;6230579;22;20152;-87
2022/08/15 00:50:55;;;;;;;6.10;5.60;;;23.30;65.00;;;;;;6254484;22;20149;-87
2022/08/15 00:53:23;;;;;;;6.07;5.57;;;23.30;65.00;;;;;;6225526;22;20148;-88
2022/08/15 00:55:52;;;;;;;6.13;5.57;;;23.30;65.10;;;;;;6225243;22;20156;-87
2022/08/15 00:58:18;;;;;;;6.47;5.88;;;23.30;65.10;;;;;;6225436;22;20290;-87
2022/08/15 01:00:49;;;;;;;6.78;6.18;;;23.30;65.10;;;;;;6225434;22;20577;-87
2022/08/15 01:03:21;;;;;;;6.20;5.70;;;23.30;65.10;;;;;;6175109;22;20580;-87
2022/08/15 01:05:49;;;;;;;6.60;6.00;;;23.30;65.20;;;;;;6225095;22;20160;-87
2022/08/15 01:08:16;;;;;;;6.20;5.70;;;23.30;65.20;;;;;;6225314;22;20224;-88
2022/08/15 01:10:45;;;;;;;6.57;5.97;;;23.30;65.30;;;;;;6224664;22;20155;-87
2022/08/15 01:13:13;;;;;;;6.40;5.82;;;23.30;65.30;;;;;;6250303;22;20133;-87
2022/08/15 01:15:41;;;;;;;6.50;5.90;;;23.20;65.20;;;;;;6225370;22;20267;-88
2022/08/15 01:18:09;;;;;;;6.45;5.85;;;23.30;65.30;;;;;;6224803;22;20141;-87
2022/08/15 01:20:35;;;;;;;5.93;5.43;;;23.30;65.30;;;;;;6253599;22;20126;-87
2022/08/15 01:23:31;;;;;;;6.53;5.93;;;23.30;65.30;;;;;;6256780;22;20125;-88
2022/08/15 01:25:58;;;;;;;6.15;5.55;;;23.30;65.30;;;;;;6281679;22;20248;-87
2022/08/15 01:28:28;;;;;;;6.32;5.72;;;23.30;65.30;;;;;;6257249;22;20147;-87
2022/08/15 01:30:57;;;;;;;6.47;5.88;;;23.30;65.30;;;;;;6231854;22;20151;-88
2022/08/15 01:33:23;;;;;;;6.38;5.78;;;23.30;65.30;;;;;;6231532;22;20144;-88
2022/08/15 01:35:49;;;;;;;6.13;5.63;;;23.30;65.30;;;;;;6231303;22;20140;-87
2022/08/15 01:38:27;;;;;;;6.45;5.85;;;23.20;65.30;;;;;;6256260;22;20132;-88
2022/08/15 01:41:04;;;;;;;6.40;5.80;;;23.20;65.30;;;;;;6233687;22;20151;-88
2022/08/15 01:43:32;;;;;;;6.47;5.88;;;23.30;65.30;;;;;;6232821;22;20148;-88
2022/08/15 01:46:02;;;;;;;6.55;5.95;;;23.20;65.30;;;;;;6231158;22;20176;-87
2022/08/15 01:48:33;;;;;;;6.60;6.00;;;23.30;66.20;;;;;;6232107;22;20195;-86
2022/08/15 01:51:04;;;;;;;6.05;5.55;;;23.20;65.30;;;;;;6231425;22;20567;-87
2022/08/15 01:53:36;;;;;;;6.93;6.32;;;23.20;65.40;;;;;;6231839;22;20147;-87
2022/08/15 01:56:08;;;;;;;6.35;5.75;;;23.20;65.40;;;;;;6232089;22;20144;-87
2022/08/15 01:58:37;;;;;;;6.82;6.22;;;23.20;65.60;;;;;;6231532;22;20144;-88
2022/08/15 02:01:07;;;;;;;6.50;5.90;;;23.20;65.40;;;;;;6256213;22;20464;-87
2022/08/15 02:03:33;;;;;;;6.30;5.72;;;23.20;65.40;;;;;;6231291;22;20486;-87
2022/08/15 02:06:09;;;;;;;7.15;6.45;;;23.30;65.40;;;;;;6230738;22;20204;-88
2022/08/15 02:08:37;;;;;;;5.88;5.38;;;23.20;66.20;;;;;;6256857;22;20186;-87
2022/08/15 02:11:10;;;;;;;6.30;5.75;;;23.20;65.40;;;;;;6231538;22;20148;-88
2022/08/15 02:13:37;;;;;;;6.55;5.95;;;23.20;65.50;;;;;;6231851;22;20160;-88
2022/08/15 02:16:06;;;;;;;6.32;5.78;;;23.20;65.60;;;;;;6231411;22;20474;-87
2022/08/15 02:18:32;;;;;;;6.60;6.00;;;23.20;65.50;;;;;;6231716;22;20191;-87
2022/08/15 02:20:58;;;;;;;6.50;5.90;;;23.20;66.30;;;;;;6231092;22;20226;-88
2022/08/15 02:23:26;;;;;;;6.07;5.57;;;23.20;65.50;;;;;;6193633;23;20149;-88
2022/08/15 02:25:52;;;;;;;6.38;5.78;;;23.20;65.50;;;;;;6189481;23;20196;-88
2022/08/15 02:28:18;;;;;;;6.25;5.68;;;23.10;65.50;;;;;;6164079;23;20284;-87
2022/08/15 02:30:44;;;;;;;6.32;5.72;;;23.20;65.60;;;;;;6139960;23;20246;-88
2022/08/15 02:33:10;;;;;;;6.53;5.93;;;23.10;65.50;;;;;;6164440;23;20188;-88
2022/08/15 02:35:38;;;;;;;6.88;6.28;;;23.20;65.60;;;;;;6140532;23;20512;-88
2022/08/15 02:38:05;;;;;;;6.70;6.10;;;23.20;65.60;;;;;;6164783;23;20180;-88
2022/08/15 02:40:31;;;;;;;6.53;5.93;;;23.10;65.50;;;;;;6164894;23;20145;-87
2022/08/15 02:43:07;;;;;;;6.32;5.72;;;23.10;65.50;;;;;;6164612;23;20601;-87
2022/08/15 02:45:37;;;;;;;6.07;5.57;;;23.10;65.50;;;;;;6164556;23;20149;-88
2022/08/15 02:48:10;;;;;;;6.68;6.07;;;23.10;65.50;;;;;;6165296;23;20482;-88
2022/08/15 02:50:37;;;;;;;6.53;5.93;;;23.10;65.60;;;;;;6165517;23;20130;-88
2022/08/15 02:53:15;;;;;;;6.30;5.70;;;23.20;65.60;;;;;;6164627;23;20149;-88
2022/08/15 02:55:42;;;;;;;6.70;6.10;;;23.10;65.50;;;;;;6224596;22;20591;-87
2022/08/15 02:58:18;;;;;;;6.43;5.82;;;23.10;65.60;;;;;;6249404;22;20174;-87
2022/08/15 03:00:45;;;;;;;6.70;6.10;;;23.10;65.70;;;;;;6274311;22;20155;-88
2022/08/15 03:03:14;;;;;;;6.68;6.07;;;23.10;65.60;;;;;;6249272;22;20160;-87
2022/08/15 03:05:43;;;;;;;6.35;5.75;;;23.10;65.70;;;;;;6248913;22;20153;-88
2022/08/15 03:08:09;;;;;;;6.57;5.97;;;23.10;65.70;;;;;;6250184;22;20153;-87
2022/08/15 03:10:35;;;;;;;6.68;6.07;;;23.10;65.80;;;;;;6200100;22;20226;-88
2022/08/15 03:13:07;;;;;;;6.40;5.80;;;23.10;65.80;;;;;;6164462;23;20157;-87
2022/08/15 03:15:52;;;;;;;6.50;5.90;;;23.10;65.70;;;;;;6190107;23;20150;-88
2022/08/15 03:18:20;;;;;;;6.45;5.85;;;23.10;65.80;;;;;;6215911;23;20159;-88
2022/08/15 03:20:51;;;;;;;6.60;6.00;;;23.10;65.80;;;;;;6190918;23;20149;-87
2022/08/15 03:23:25;;;;;;;6.63;6.03;;;23.10;65.80;;;;;;6166673;23;20158;-87
2022/08/15 03:25:52;;;;;;;6.50;5.90;;;23.10;65.80;;;;;;6173297;23;20193;-87
2022/08/15 03:28:24;;;;;;;5.90;5.40;;;23.10;65.90;;;;;;6195935;23;20162;-87
2022/08/15 03:30:50;;;;;;;6.10;5.60;;;23.10;66.70;;;;;;6195683;23;20150;-87
2022/08/15 03:33:17;;;;;;;6.00;5.50;;;23.10;65.90;;;;;;6195830;23;20153;-88
2022/08/15 03:35:46;;;;;;;6.43;5.80;;;23.10;65.90;;;;;;6196158;23;20453;-88
2022/08/15 03:38:12;;;;;;;6.32;5.72;;;23.10;65.90;;;;;;6196326;23;20149;-87
2022/08/15 03:40:39;;;;;;;6.15;5.55;;;23.00;65.90;;;;;;6171346;23;20152;-87
2022/08/15 03:43:12;;;;;;;6.50;5.90;;;23.10;66.80;;;;;;6200668;22;20134;-88
2022/08/15 03:45:42;;;;;;;6.43;5.82;;;23.00;65.90;;;;;;6228474;22;20548;-88
2022/08/15 03:48:09;;;;;;;6.40;5.80;;;23.10;65.80;;;;;;6228732;22;20191;-88
2022/08/15 03:50:36;;;;;;;6.68;6.07;;;23.10;65.80;;;;;;6203339;22;20148;-87
2022/08/15 03:53:03;;;;;;;6.40;5.80;;;23.10;65.80;;;;;;6253790;22;20299;-87
2022/08/15 03:55:30;;;;;;;6.45;5.85;;;23.10;65.80;;;;;;6203883;22;20318;-87
2022/08/15 03:57:57;;;;;;;6.03;5.43;;;23.10;65.90;;;;;;6204035;22;20572;-87
2022/08/15 04:00:25;;;;;;;6.38;5.78;;;23.10;65.90;;;;;;6229340;22;20190;-87
2022/08/15 04:02:51;;;;;;;6.47;5.88;;;23.10;65.90;;;;;;6230025;22;20140;-88
2022/08/15 04:05:17;;;;;;;6.40;5.80;;;23.10;65.80;;;;;;6228970;22;20133;-87
2022/08/15 04:07:44;;;;;;;6.38;5.78;;;23.00;65.80;;;;;;6229354;22;20164;-88
2022/08/15 04:10:14;;;;;;;6.60;6.00;;;23.00;65.90;;;;;;6229859;22;20557;-88
2022/08/15 04:12:41;;;;;;;6.72;6.13;;;23.00;65.90;;;;;;6204853;22;20156;-88
2022/08/15 04:15:10;;;;;;;6.18;5.57;;;23.00;65.90;;;;;;6204004;22;20144;-87
2022/08/15 04:17:38;;;;;;;6.35;5.75;;;23.10;65.90;;;;;;6229216;22;20575;-87
2022/08/15 04:20:06;;;;;;;6.20;5.47;;;23.00;65.80;;;;;;6204516;22;20149;-87
2022/08/15 04:22:35;;;;;;;6.35;5.75;;;23.00;65.90;;;;;;6204283;22;20212;-87
2022/08/15 04:25:09;;;;;;;6.30;5.70;;;23.00;65.90;;;;;;6209308;22;20207;-87
2022/08/15 04:27:36;;;;;;;6.20;5.60;;;23.00;65.80;;;;;;6236181;22;20187;-87
2022/08/15 04:30:06;;;;;;;6.30;5.70;;;23.00;65.80;;;;;;6259252;22;20144;-88
2022/08/15 04:32:32;;;;;;;6.00;5.50;;;23.10;65.90;;;;;;6233814;22;20648;-87
2022/08/15 04:34:59;;;;;;;6.00;5.45;;;23.10;65.80;;;;;;6233884;22;20144;-87
2022/08/15 04:37:26;;;;;;;6.45;5.85;;;23.10;65.70;;;;;;6260255;22;20151;-87
2022/08/15 04:39:53;;;;;;;5.88;5.38;;;23.10;65.80;;;;;;6259908;22;20160;-87
2022/08/15 04:42:19;;;;;;;6.22;5.72;;;23.10;65.80;;;;;;6233811;22;20152;-88
2022/08/15 04:44:49;;;;;;;5.63;5.13;;;23.00;65.70;;;;;;6234366;22;20154;-88
2022/08/15 04:47:18;;;;;;;6.00;5.50;;;23.10;65.80;;;;;;6233858;22;20271;-88
2022/08/15 04:49:44;;;;;;;5.97;5.47;;;23.00;65.80;;;;;;6258801;22;20502;-88
2022/08/15 04:52:12;;;;;;;6.30;5.70;;;23.00;66.00;;;;;;6258979;22;20433;-87
2022/08/15 04:54:41;;;;;;;5.80;5.30;;;23.10;66.90;;;;;;6259224;22;20552;-87
2022/08/15 04:57:08;;;;;;;5.95;5.43;;;23.10;66.20;;;;;;6232747;22;20552;-87
2022/08/15 04:59:36;;;;;;;6.20;5.60;;;23.00;66.10;;;;;;6258004;22;20128;-89
2022/08/15 05:02:04;;;;;;;5.93;5.43;;;23.10;66.00;;;;;;6258085;22;20211;-88
2022/08/15 05:04:29;;;;;;;6.00;5.47;;;23.10;66.40;;;;;;6233311;22;20179;-88
2022/08/15 05:06:57;;;;;;;5.95;5.45;;;23.10;66.90;;;;;;6232433;22;20495;-88
2022/08/15 05:09:23;;;;;;;6.00;5.50;;;23.20;66.80;;;;;;6257836;22;20135;-88
2022/08/15 05:11:49;;;;;;;6.03;5.45;;;23.20;66.40;;;;;;6232042;22;20468;-88
2022/08/15 05:14:15;;;;;;;6.28;5.68;;;23.20;66.60;;;;;;6258484;22;20202;-88
2022/08/15 05:16:41;;;;;;;5.88;5.38;;;23.20;66.60;;;;;;6233462;22;20148;-88
2022/08/15 05:19:07;;;;;;;5.95;5.45;;;23.20;66.90;;;;;;6233228;22;20158;-89
2022/08/15 05:21:33;;;;;;;6.00;5.50;;;23.30;66.50;;;;;;6233514;22;20175;-88
2022/08/15 05:23:58;;;;;;;6.13;5.63;;;23.30;66.60;;;;;;6233265;22;20182;-88
2022/08/15 05:26:24;;;;;;;6.00;5.50;;;23.30;66.80;;;;;;6228137;22;20228;-88
2022/08/15 05:28:51;;;;;;;5.80;5.30;;;23.30;67.30;;;;;;6253558;22;20163;-87
2022/08/15 05:31:17;;;;;;;5.93;5.43;;;23.30;66.70;;;;;;6227442;22;20156;-87
2022/08/15 05:33:45;;;;;;;5.50;5.00;;;23.30;67.20;;;;;;6228049;22;20149;-88
2022/08/15 05:36:11;;;;;;;6.32;5.72;;;23.40;67.00;;;;;;6226681;22;20179;-88
2022/08/15 05:38:40;;;;;;;5.93;5.43;;;23.40;66.70;;;;;;6227198;22;20568;-88
2022/08/15 05:41:28;;;;;;;5.70;5.20;;;23.40;66.70;;;;;;6227683;22;20229;-88
2022/08/15 05:44:32;;;;;;;6.15;5.35;;;23.50;67.00;;;;;;6277125;22;20557;-88
2022/08/15 05:47:05;;;;;;;5.70;5.20;;;23.50;67.00;;;;;;6256252;22;20176;-88
2022/08/15 05:50:01;;;;;;;6.10;5.57;;;23.50;67.40;;;;;;6252137;22;20219;-88
2022/08/15 05:52:41;;;;;;;5.90;5.30;;;23.50;67.10;;;;;;6250634;22;20149;-88
2022/08/15 05:55:41;;;;;;;5.97;5.47;;;23.50;67.00;;;;;;6275695;22;20155;-87
2022/08/15 05:58:39;;;;;;;5.70;5.20;;;23.50;67.40;;;;;;6254455;22;20186;-87
2022/08/15 06:01:14;;;;;;;5.97;5.47;;;23.60;67.40;;;;;;6257967;22;20591;-87
2022/08/15 06:03:54;;;;;;;5.95;5.45;;;23.70;67.40;;;;;;6229264;22;20227;-87
2022/08/15 06:06:21;;;;;;;6.22;5.63;;;23.60;68.00;;;;;;6253223;22;20180;-88
2022/08/15 06:08:48;;;;;;;5.90;5.30;;;23.60;67.80;;;;;;6253991;22;20216;-87
2022/08/15 06:11:21;;;;;;;6.35;5.80;;;23.60;67.80;;;;;;6227867;22;20184;-87
2022/08/15 06:14:02;;;;;;;5.75;5.25;;;23.60;68.30;;;;;;6226608;22;20682;-87
2022/08/15 06:16:31;;;;;;;5.82;5.30;;;23.60;68.20;;;;;;6252942;22;20231;-87
2022/08/15 06:18:59;;;;;;;6.00;5.50;;;23.60;68.10;;;;;;6225693;22;20203;-87
2022/08/15 06:21:44;;;;;;;5.68;5.18;;;23.70;68.20;;;;;;6250533;22;20521;-87
2022/08/15 06:24:23;;;;;;;5.85;5.35;;;23.60;68.00;;;;;;6225332;22;20235;-86
2022/08/15 06:26:56;;;;;;;5.63;5.13;;;23.70;68.30;;;;;;6257054;22;20329;-87
2022/08/15 06:29:48;;;;;;;5.95;5.40;;;23.80;68.50;;;;;;6280449;22;20132;-86
2022/08/15 06:32:22;;;;;;;6.50;5.90;;;23.80;68.40;;;;;;6238610;22;20579;-87
2022/08/15 06:34:58;;;;;;;6.40;5.80;;;23.70;68.70;;;;;;6255656;22;20133;-87
2022/08/15 06:37:42;;;;;;;5.15;4.75;;;23.70;68.80;;;;;;6280546;22;20136;-87
2022/08/15 06:40:33;;;;;;;6.05;5.53;;;23.70;68.90;;;;;;6283901;22;20128;-86
2022/08/15 06:42:59;;;;;;;5.80;5.30;;;23.70;68.80;;;;;;6280155;22;20152;-87
2022/08/15 06:45:31;;;;;;;5.82;5.32;;;23.60;69.10;;;;;;6229678;22;20632;-86
2022/08/15 06:48:01;;;;;;;5.78;5.20;;;23.70;69.60;;;;;;6282248;22;20160;-86
2022/08/15 06:50:36;;;;;;;6.07;5.47;;;23.70;69.40;;;;;;6230522;22;20183;-86
2022/08/15 06:53:22;;;;;;;5.88;5.32;;;23.70;68.90;;;;;;6233716;22;20140;-87
2022/08/15 06:55:55;;;;;;;5.85;5.35;;;23.90;69.70;;;;;;6261653;22;20197;-87
2022/08/15 06:58:30;;;;;;;6.13;5.53;;;24.00;68.80;;;;;;6258248;22;20128;-86
2022/08/15 07:01:01;;;;;;;6.10;5.60;;;24.00;68.70;;;;;;6233507;22;20169;-86
2022/08/15 07:04:02;;;;;;;5.50;5.00;;;24.00;68.80;;;;;;6233145;22;20483;-86
2022/08/15 07:06:35;;;;;;;5.55;5.05;;;24.00;69.00;;;;;;6310829;22;20167;-86
2022/08/15 07:09:22;;;;;;;5.63;5.13;;;23.90;69.00;;;;;;6284617;22;20129;-86
2022/08/15 07:11:55;;;;;;;5.90;5.40;;;23.90;69.40;;;;;;6263575;22;20155;-87
2022/08/15 07:14:27;;;;;;;5.75;5.25;;;23.90;69.50;;;;;;6258955;22;20134;-86
2022/08/15 07:17:26;;;;;;;5.70;5.20;;;23.90;69.50;;;;;;6234680;22;20156;-86
2022/08/15 07:19:52;;;;;;;5.85;4.85;;;23.90;69.60;;;;;;6257759;22;20223;-86
2022/08/15 07:22:18;;;;;;;5.65;5.15;;;24.00;69.60;;;;;;6285222;22;20137;-87
2022/08/15 07:24:51;;;;;;;5.78;5.28;;;23.90;69.50;;;;;;6259971;22;20152;-87
2022/08/15 07:27:17;;;;;;;5.70;5.20;;;24.00;69.80;;;;;;6234616;22;20172;-86
2022/08/15 07:29:46;;;;;;;5.75;5.25;;;24.00;70.00;;;;;;6232587;22;20168;-87
2022/08/15 07:32:25;;;;;;;5.47;4.97;;;23.90;70.00;;;;;;6232524;22;20219;-86
2022/08/15 07:35:16;;;;;;;5.75;5.25;;;24.00;69.90;;;;;;6282704;22;20144;-87
2022/08/15 07:37:54;;;;;;;5.43;4.93;;;24.00;70.30;;;;;;6257972;22;20189;-86
2022/08/15 07:40:26;;;;;;;5.68;5.18;;;24.10;70.30;;;;;;6232442;22;20155;-87
2022/08/15 07:42:52;;;;;;;5.90;5.40;;;24.00;70.30;;;;;;6257341;22;20132;-87
2022/08/15 07:49:07;;;;;;;5.75;5.25;;;24.00;70.20;;;;;;6104916;23;20169;-87
2022/08/15 07:52:27;;;;;;;;;;;;;;;;;;;;;
2022/08/15 07:55:52;;;;;;;;;;;;;;;;;;;;;
2022/08/15 07:58:27;;;;;;;6.15;5.55;;;23.80;71.20;;;;;;5950266;24;20234;-87
2022/08/15 08:01:22;;;;;;;5.68;5.18;;;23.80;71.40;;;;;;5898157;24;20249;-86
2022/08/15 08:04:03;;;;;;;5.78;5.28;;;23.80;71.60;;;;;;5876803;24;20157;-88
2022/08/15 08:06:36;;;;;;;6.30;5.70;;;23.80;71.70;;;;;;5891473;24;20217;-87
2022/08/15 08:09:32;;;;;;;6.40;5.80;;;23.80;71.80;;;;;;5871952;24;20158;-87
2022/08/15 08:12:33;;;;;;;6.65;6.05;;;23.80;71.80;;;;;;5888730;24;20211;-87
2022/08/15 08:15:22;;;;;;;5.93;5.43;;;23.70;72.20;;;;;;5845046;24;20163;-86
2022/08/15 08:17:59;;;;;;;6.35;5.75;;;23.80;72.50;;;;;;5868732;24;20245;-87
2022/08/15 08:20:49;;;;;;;6.07;5.55;;;23.80;72.00;;;;;;5950785;24;20187;-88
2022/08/15 08:23:33;;;;;;;6.22;5.63;;;23.90;72.30;;;;;;5926994;24;20172;-88
2022/08/15 08:26:22;;;;;;;5.80;5.30;;;23.90;72.00;;;;;;5947064;24;20320;-88
2022/08/15 08:29:03;;;;;;;6.05;5.55;;;23.90;72.40;;;;;;5988275;23;20242;-87
2022/08/15 08:31:42;;;;;;;5.88;5.30;;;23.90;72.30;;;;;;6027351;23;20159;-87
2022/08/15 08:34:29;;;;;;;6.28;5.72;;;23.90;72.20;;;;;;6019508;23;20213;-87
2022/08/15 08:37:05;;;;;;;6.45;5.85;;;23.90;72.50;;;;;;5983249;24;20163;-87
2022/08/15 08:39:52;;;;;;;6.28;5.68;;;23.80;72.60;;;;;;5988674;23;20169;-87
2022/08/15 08:42:32;;;;;;;7.03;5.55;;;23.90;72.50;;;;;;6011155;23;20201;-87
2022/08/15 08:45:07;;;;;;;6.70;6.00;;;24.00;72.10;;;;;;6013335;23;20619;-87
2022/08/15 08:48:15;;;;;;;7.72;5.80;;;23.90;71.80;;;;;;5988899;23;20524;-88
2022/08/15 08:50:59;;;;;;;8.82;5.93;;;23.90;72.50;;;;;;6002430;23;20143;-87
2022/08/15 08:54:00;;;;;;;12.98;6.57;;;23.90;73.20;;;;;;5987552;23;20236;-88
2022/08/15 08:56:44;;;;;;;12.32;6.57;;;23.80;73.20;;;;;;6005967;23;20179;-89
2022/08/15 08:59:48;;;;;;;15.52;6.22;;;23.80;73.50;;;;;;6064343;23;20161;-87
2022/08/15 09:02:30;;;;;;;18.42;6.85;;;23.80;73.50;;;;;;6008675;23;20638;-87
2022/08/15 09:05:11;;;;;;;20.40;6.18;;;23.80;74.00;;;;;;5983787;23;20158;-87
2022/08/15 09:07:48;;;;;;;16.45;6.43;;;23.90;73.90;;;;;;6008979;23;20190;-87
2022/08/15 09:10:32;;;;;;;12.52;6.25;;;23.80;74.10;;;;;;6010433;23;20161;-87
2022/08/15 09:15:44;;;;;;;14.38;6.65;;;23.90;73.80;;;;;;6008966;23;20159;-86
2022/08/15 09:18:18;;;;;;;11.73;6.80;;;23.90;73.90;;;;;;6009128;23;20199;-87
2022/08/15 09:20:59;;;;;;;11.05;5.97;;;23.80;73.70;;;;;;6044780;23;20179;-87
2022/08/15 09:23:36;;;;;;;13.95;6.25;;;23.90;73.90;;;;;;6065864;23;20167;-87
2022/08/15 09:26:45;;;;;;;19.95;6.65;;;24.00;73.90;;;;;;6042412;23;20277;-87
2022/08/15 09:29:35;;;;;;;16.00;6.50;;;24.00;73.80;;;;;;6032993;23;20207;-88
2022/08/15 09:32:30;;;;;;;11.63;6.22;;;24.00;73.80;;;;;;6027039;23;20191;-87
2022/08/15 09:35:27;;;;;;;;;;;;;;;;;;;;;
2022/08/15 09:42:08;;;;;;;10.32;6.25;;;24.00;73.60;;;;;;5969902;24;20163;-87
2022/08/15 09:45:15;;;;;;;7.40;6.10;;;24.00;73.60;;;;;;5965845;24;20173;-86
2022/08/15 09:51:16;;;;;;;8.27;6.18;;;23.90;73.90;;;;;;5952531;24;20191;-87
2022/08/15 09:54:15;;;;;;;7.65;6.30;;;23.90;74.00;;;;;;5964527;23;20659;-86
2022/08/15 09:57:22;;;;;;;10.80;6.10;;;23.90;74.10;;;;;;5975552;23;20235;-86
2022/08/15 09:59:55;;;;;;;9.88;6.40;;;23.90;74.30;;;;;;5981047;24;20205;-86
2022/08/15 10:02:27;;;;;;;7.28;6.18;;;23.90;74.40;;;;;;5944727;24;20213;-87
2022/08/15 10:05:09;;;;;;;11.35;6.55;;;23.90;74.60;;;;;;5924960;24;20161;-86
2022/08/15 10:08:07;;;;;;;7.90;6.05;;;23.90;74.60;;;;;;5950727;24;20199;-87
2022/08/15 10:10:53;;;;;;;8.38;6.80;;;23.90;74.70;;;;;;5933317;24;20216;-87
2022/08/15 10:13:29;;;;;;;7.32;6.38;;;24.00;74.90;;;;;;5895823;24;20158;-87
2022/08/15 10:15:56;;;;;;;9.27;6.22;;;24.00;75.00;;;;;;5893402;24;20158;-87
2022/08/15 10:19:01;;;;;;;9.73;7.20;;;23.90;75.00;;;;;;5897921;24;20237;-86
2022/08/15 10:24:40;;;;;;;10.75;6.63;;;24.00;74.90;;;;;;5844073;24;20624;-87
2022/08/15 10:27:53;;;;;;;9.60;7.05;;;24.10;75.00;;;;;;5809812;24;20198;-87
2022/08/15 10:30:30;;;;;;;9.27;6.28;;;24.00;75.30;;;;;;5846288;24;20225;-87
2022/08/15 10:32:57;;;;;;;8.07;6.45;;;24.00;75.00;;;;;;5882818;24;20162;-87
2022/08/15 10:35:31;;;;;;;9.45;6.50;;;24.10;75.10;;;;;;5862637;24;20168;-87
2022/08/15 10:38:07;;;;;;;7.55;6.80;;;24.10;75.10;;;;;;5867882;24;20515;-87
2022/08/15 10:40:46;;;;;;;6.95;6.28;;;24.10;75.10;;;;;;5887467;24;20183;-87
2022/08/15 10:43:43;;;;;;;8.13;6.38;;;24.10;75.20;;;;;;5838155;24;20173;-87
2022/08/15 10:46:29;;;;;;;7.55;6.85;;;24.10;75.20;;;;;;5857938;24;20170;-87
2022/08/15 10:49:16;;;;;;;8.75;6.57;;;24.10;75.50;;;;;;5823660;24;20177;-87
2022/08/15 10:51:53;;;;;;;7.32;6.63;;;24.10;75.50;;;;;;5829357;24;20164;-87
2022/08/15 10:54:50;;;;;;;7.25;6.63;;;24.10;75.60;;;;;;5882534;24;20310;-87
2022/08/15 10:57:47;;;;;;;8.52;6.78;;;24.10;75.80;;;;;;5918861;24;20685;-88
2022/08/15 11:00:29;;;;;;;7.32;6.28;;;24.10;76.70;;;;;;5902192;24;20197;-88
2022/08/15 11:02:57;;;;;;;8.23;6.68;;;24.10;75.90;;;;;;5948933;24;20164;-88
2022/08/15 11:06:02;;;;;;;7.38;6.60;;;24.10;75.90;;;;;;6044616;23;20166;-88
2022/08/15 11:08:36;;;;;;;7.63;6.93;;;24.10;76.90;;;;;;6058381;23;20165;-88
2022/08/15 11:11:14;;;;;;;8.90;6.40;;;24.10;76.10;;;;;;6072661;23;20153;-88
2022/08/15 11:14:37;;;;;;;7.28;6.43;;;24.10;76.30;;;;;;6054820;23;20188;-89
2022/08/15 11:17:40;;;;;;;7.25;6.55;;;24.10;76.40;;;;;;5951729;24;20164;-89
2022/08/15 11:20:14;;;;;;;8.05;6.63;;;24.10;76.60;;;;;;5956996;24;20171;-88
2022/08/15 11:22:57;;;;;;;7.40;6.68;;;24.10;76.50;;;;;;5935372;24;20242;-87
2022/08/15 11:25:25;;;;;;;7.00;6.40;;;24.20;76.40;;;;;;5960990;23;20199;-86
2022/08/15 11:28:05;;;;;;;7.90;7.00;;;24.20;76.50;;;;;;5934825;24;20198;-89
2022/08/15 11:30:34;;;;;;;7.95;7.00;;;24.20;76.70;;;;;;5957416;24;20162;-88
2022/08/15 11:33:16;;;;;;;8.10;7.05;;;24.20;76.60;;;;;;5934660;24;20159;-88
2022/08/15 11:35:45;;;;;;;7.75;6.88;;;24.20;76.70;;;;;;5980430;24;20151;-87
2022/08/15 11:38:12;;;;;;;8.43;6.95;;;24.20;76.70;;;;;;5936460;24;20167;-88
2022/08/15 11:40:41;;;;;;;7.05;6.35;;;24.10;76.80;;;;;;5982318;24;20588;-87
2022/08/15 11:43:16;;;;;;;8.25;7.13;;;24.20;76.80;;;;;;6005263;23;20173;-89
2022/08/15 11:45:45;;;;;;;8.43;6.70;;;24.30;76.60;;;;;;6005149;23;20487;-89
2022/08/15 11:48:13;;;;;;;7.20;6.50;;;24.20;76.50;;;;;;6005042;23;20227;-88
2022/08/15 11:51:23;;;;;;;7.85;7.15;;;24.30;76.10;;;;;;5997794;23;20192;-88
2022/08/15 11:54:20;;;;;;;8.77;7.03;;;24.30;75.90;;;;;;6077441;23;20187;-90
2022/08/15 11:56:47;;;;;;;7.70;6.65;;;24.20;75.90;;;;;;6161408;23;20180;-88
2022/08/15 11:59:30;;;;;;;7.28;6.68;;;24.30;76.10;;;;;;6190484;23;20593;-86
2022/08/15 12:02:34;;;;;;;6.95;6.32;;;24.30;76.10;;;;;;6131325;23;20155;-88
2022/08/15 12:05:15;;;;;;;8.85;6.90;;;24.30;75.90;;;;;;6160038;23;20167;-87
2022/08/15 12:07:45;;;;;;;6.60;6.00;;;24.30;75.90;;;;;;6134753;23;20210;-87
2022/08/15 12:10:28;;;;;;;7.00;6.38;;;24.30;75.20;;;;;;6133189;23;20259;-87
2022/08/15 12:13:06;;;;;;;7.55;6.85;;;24.40;75.00;;;;;;6133859;23;20232;-87
2022/08/15 12:15:45;;;;;;;8.65;6.72;;;24.40;75.10;;;;;;6132140;23;20599;-86
2022/08/15 12:18:32;;;;;;;7.30;6.50;;;24.40;75.00;;;;;;6094196;23;20224;-87
2022/08/15 12:21:08;;;;;;;6.93;6.32;;;24.40;75.70;;;;;;6024061;23;20158;-87
2022/08/15 12:23:54;;;;;;;7.35;6.53;;;24.40;75.00;;;;;;6063122;23;20160;-89
2022/08/15 12:26:28;;;;;;;7.30;6.55;;;24.40;74.80;;;;;;6125205;23;20538;-87
2022/08/15 12:29:07;;;;;;;7.20;6.55;;;24.40;75.10;;;;;;6083337;23;20155;-87
2022/08/15 12:31:52;;;;;;;7.78;6.55;;;24.40;74.60;;;;;;6084674;23;20185;-88
2022/08/15 12:34:39;;;;;;;7.45;6.80;;;24.50;74.30;;;;;;6169854;23;20148;-88
2022/08/15 12:37:06;;;;;;;7.47;6.80;;;24.50;74.30;;;;;;6107762;23;20587;-88
2022/08/15 12:39:35;;;;;;;7.47;6.78;;;24.50;74.50;;;;;;6105918;23;20155;-87
2022/08/15 12:42:05;;;;;;;7.47;6.60;;;24.40;74.60;;;;;;6105429;23;20159;-87
2022/08/15 12:44:35;;;;;;;7.57;6.93;;;24.40;74.60;;;;;;6154533;23;20151;-87
2022/08/15 12:47:01;;;;;;;7.63;6.80;;;24.30;74.60;;;;;;6105418;23;20189;-87
2022/08/15 12:49:26;;;;;;;7.20;6.60;;;24.40;74.60;;;;;;6153664;23;20154;-87
2022/08/15 12:51:52;;;;;;;7.60;6.90;;;24.40;74.60;;;;;;6189202;23;20161;-87
2022/08/15 12:54:18;;;;;;;7.90;7.20;;;24.40;74.30;;;;;;6164020;23;20142;-87
2022/08/15 12:56:49;;;;;;;7.50;6.80;;;24.40;74.20;;;;;;6188831;23;20165;-87
2022/08/15 12:59:17;;;;;;;7.50;6.90;;;24.40;74.20;;;;;;6164160;23;20142;-87
2022/08/15 13:01:43;;;;;;;7.63;6.93;;;24.40;74.20;;;;;;6163988;23;20146;-87
2022/08/15 13:04:10;;;;;;;7.80;7.05;;;24.40;74.20;;;;;;6188866;23;20235;-87
2022/08/15 13:06:42;;;;;;;7.80;7.10;;;24.40;74.20;;;;;;6164450;23;20220;-86
2022/08/15 13:09:08;;;;;;;7.78;7.03;;;24.40;74.20;;;;;;6164676;23;20146;-87
2022/08/15 13:11:36;;;;;;;7.80;7.10;;;24.40;74.10;;;;;;6188722;23;20147;-86
2022/08/15 13:14:02;;;;;;;8.25;7.53;;;24.40;74.10;;;;;;6164468;23;20224;-86
2022/08/15 13:16:27;;;;;;;8.25;7.47;;;24.50;73.60;;;;;;6188646;23;20473;-87
2022/08/15 13:18:53;;;;;;;7.40;6.70;;;24.40;73.40;;;;;;6188813;23;20337;-87
2022/08/15 13:23:59;;;;;;;7.90;7.20;;;24.50;73.00;;;;;;6254413;22;20160;-87
2022/08/15 13:26:25;;;;;;;7.88;7.18;;;24.50;72.90;;;;;;6255289;22;20195;-86
2022/08/15 13:28:55;;;;;;;7.72;6.93;;;24.50;72.90;;;;;;6282075;22;20128;-86
2022/08/15 13:31:20;;;;;;;8.00;7.30;;;24.50;73.00;;;;;;6231213;22;20178;-87
2022/08/15 13:33:47;;;;;;;8.18;7.45;;;24.60;72.90;;;;;;6257045;22;20121;-86
2022/08/15 13:36:16;;;;;;;8.05;7.35;;;24.60;72.80;;;;;;6230528;22;20582;-85
2022/08/15 13:38:42;;;;;;;8.00;7.30;;;24.60;72.70;;;;;;6255858;22;20163;-86
2022/08/15 13:41:08;;;;;;;8.98;7.97;;;24.70;72.60;;;;;;6255682;22;20183;-86
2022/08/15 13:43:34;;;;;;;8.40;7.60;;;24.70;72.50;;;;;;6255561;22;20140;-86
2022/08/15 13:46:01;;;;;;;8.30;7.50;;;24.60;72.30;;;;;;6280855;22;20159;-86
2022/08/15 13:48:34;;;;;;;8.60;7.80;;;24.70;72.30;;;;;;6231866;22;20164;-85
2022/08/15 13:51:00;;;;;;;8.35;7.65;;;24.70;72.60;;;;;;6195274;23;20642;-86
2022/08/15 13:53:27;;;;;;;8.77;8.00;;;24.60;72.80;;;;;;6220119;23;20130;-86
2022/08/15 13:55:52;;;;;;;8.23;7.53;;;24.80;72.70;;;;;;6195559;23;20237;-86